createdAt,value
2023-03-23T16:00:22.555Z,13.54
2023-03-23T16:04:26.661Z,13.62
2023-03-23T16:08:30.823Z,13.63
2023-03-23T16:12:33.894Z,13.67
2023-03-23T16:16:39.612Z,13.66
2023-03-23T16:20:42.334Z,13.69
2023-03-23T16:24:46.438Z,13.69
2023-03-23T16:28:49.598Z,13.74
2023-03-23T16:32:55.554Z,13.68
2023-03-23T16:37:00.356Z,13.63
2023-03-23T16:41:04.586Z,13.61
2023-03-23T16:45:08.544Z,13.63
2023-03-23T16:49:11.220Z,13.62
2023-03-23T16:53:14.070Z,13.55
2023-03-23T16:57:18.135Z,13.40
2023-03-23T17:01:20.932Z,13.33
2023-03-23T17:05:25.891Z,13.20
2023-03-23T17:09:29.235Z,13.08
2023-03-23T17:13:33.286Z,13.06
2023-03-23T17:17:36.234Z,13.03
2023-03-23T17:21:41.374Z,12.95
2023-03-23T17:25:45.747Z,12.87
2023-03-23T17:29:50.487Z,12.82
2023-03-23T17:33:53.730Z,12.79
2023-03-23T17:37:56.446Z,12.73
2023-03-23T17:41:59.257Z,12.73
2023-03-23T17:46:03.322Z,12.68
2023-03-23T17:50:11.659Z,12.65
2023-03-23T17:54:15.500Z,12.57
2023-03-23T17:58:18.543Z,12.52
2023-03-23T18:02:22.636Z,12.49
2023-03-23T18:06:25.462Z,12.43
2023-03-23T18:10:28.141Z,12.39
2023-03-23T18:14:30.850Z,12.34
2023-03-23T18:18:36.117Z,12.30
2023-03-23T18:22:39.090Z,12.27
2023-03-23T18:26:42.411Z,12.29
2023-03-23T18:30:49.032Z,12.26
2023-03-23T18:34:53.131Z,12.24
2023-03-23T18:38:57.832Z,12.23
2023-03-23T18:43:00.830Z,12.21
2023-03-23T18:47:03.671Z,12.23
2023-03-23T18:51:08.924Z,12.21
2023-03-23T18:55:11.901Z,12.22
2023-03-23T18:59:14.551Z,12.20
2023-03-23T19:03:17.410Z,12.23
2023-03-23T19:07:21.570Z,12.25
2023-03-23T19:11:26.992Z,12.26
2023-03-23T19:15:29.931Z,12.30
2023-03-23T19:19:32.832Z,12.33
2023-03-23T19:23:36.938Z,12.32
2023-03-23T19:28:01.380Z,12.34
2023-03-23T19:32:02.903Z,12.37
2023-03-23T19:36:11.736Z,12.38
2023-03-23T19:40:35.510Z,12.43
2023-03-23T19:44:41.197Z,12.46
2023-03-23T19:48:46.151Z,12.47
2023-03-23T19:52:49.300Z,12.52
2023-03-23T19:56:53.483Z,12.55
2023-03-23T20:00:56.588Z,12.57
2023-03-23T20:04:59.619Z,12.61
2023-03-23T20:09:03.081Z,12.63
2023-03-23T20:13:07.621Z,12.67
2023-03-23T20:17:11.723Z,12.72
2023-03-23T20:21:19.640Z,12.77
2023-03-23T20:25:22.979Z,12.84
2023-03-23T20:29:27.008Z,12.88
2023-03-23T20:33:32.010Z,12.87
2023-03-23T20:37:35.447Z,12.91
2023-03-23T20:41:40.212Z,12.91
2023-03-23T20:45:44.430Z,12.91
2023-03-23T20:49:53.038Z,12.91
2023-03-23T20:53:56.522Z,12.92
2023-03-23T20:57:59.207Z,12.91
2023-03-23T21:02:04.693Z,12.91
2023-03-23T21:06:07.975Z,12.88
2023-03-23T21:10:10.645Z,12.84
2023-03-23T21:14:14.327Z,12.87
2023-03-23T21:18:18.373Z,12.81
2023-03-23T21:22:21.428Z,12.85
2023-03-23T21:26:26.222Z,12.88
2023-03-23T21:30:29.411Z,12.86
2023-03-23T21:34:33.515Z,12.88
2023-03-23T21:38:38.168Z,12.85
2023-03-23T21:42:41.999Z,12.84
2023-03-23T21:46:45.500Z,12.83
2023-03-23T21:50:49.847Z,12.73
2023-03-23T21:54:53.454Z,12.68
2023-03-23T21:58:57.193Z,12.66
2023-03-23T22:03:00.016Z,12.61
2023-03-23T22:07:04.936Z,12.52
2023-03-23T22:11:12.018Z,12.46
2023-03-23T22:15:15.716Z,12.43
2023-03-23T22:19:18.601Z,12.39
2023-03-23T22:23:22.734Z,12.33
2023-03-23T22:27:25.665Z,12.30
2023-03-23T22:31:30.643Z,12.22
2023-03-23T22:35:34.189Z,12.20
2023-03-23T22:39:38.721Z,12.16
2023-03-23T22:43:41.541Z,12.11
2023-03-23T22:47:44.543Z,12.07
2023-03-23T22:51:47.754Z,12.08
2023-03-23T22:55:54.382Z,12.03
2023-03-23T22:59:57.315Z,12.04
2023-03-23T23:04:00.226Z,12.00
2023-03-23T23:08:03.030Z,11.97
2023-03-23T23:12:07.647Z,11.95
2023-03-23T23:16:11.935Z,11.91
2023-03-23T23:20:15.543Z,11.93
2023-03-23T23:24:18.367Z,11.91
2023-03-23T23:28:23.443Z,11.90
2023-03-23T23:32:27.001Z,11.87
2023-03-23T23:36:32.063Z,11.82
2023-03-23T23:40:35.251Z,11.81
2023-03-23T23:44:39.971Z,11.80
2023-03-23T23:48:42.700Z,11.81
2023-03-23T23:52:45.687Z,11.82
2023-03-23T23:56:48.563Z,11.82
